Terminal Aerodrome Forecast
Issued by NWS

Home | Current Version | Previous Version | Text Only | Print | Product List | Glossary On
Versions: 1 2 3 4 5 6 7 8 9 10 11 12 13 14 15
000
FTUS45 KGJT 011135
TAFASE
TAF
KASE 011135Z 0112/0212 VRB03KT P6SM SKC
     FM011900 36007KT P6SM SCT120
     FM012100 33007KT P6SM SCT200
     FM020100 21004KT P6SM SCT200=

USA.gov is the U.S. government's official web portal to all federal, state and local government web resources and services.